• Join FlightAware (Why Join?)
  • Login
  • US Flag 
08:50AM EDT


 

Airport Tracker/Info


-or-


 

Live Flight TrackerFlight Track Log ✈ UAL708 ✈ 18-Apr-2013 ✈ KIAH - KDEN

Flight Track Log - Related Links

Times and Time Zones

All times are in EDT time to prevent confusion due to time zone crossing. See the UAL708 flight status page for this flight to view local times or setup timezone preferences in your user account.

Time Position Orientation Groundspeed Altitude Reporting Facility
EDT Latitude Longitude Course Direction KTS MPH feet Rate Location/Type
07:11AM 29.9553 -95.3419 276° West 163 188 1,000  Level Houston Center
07:12AM 29.9206 -95.3750 220° Southwest 236 272 2,900 2,520 Climbing Houston Center
07:13AM 30.0245 -95.7025 276° West  Level FlightAware Approximate
07:13AM 29.9119 -95.4411 261° West 273 314 5,400  Level Houston Center
07:13AM 29.9144 -95.4533 283° West 258 297 5,900 3,060 Climbing Houston Center
07:14AM 30.0355 -95.8262 276° West  Level FlightAware Approximate
07:14AM 29.9344 -95.5564 283° West 277 319 9,400  Level Houston Center
07:15AM 30.0459 -95.9501 276° West  Level FlightAware Approximate
07:15AM 29.9583 -95.6469 287° West 293 337 11,200  Level Houston Center
07:16AM 30.0686 -96.0706 276° West  Level FlightAware Approximate
07:16AM 29.9872 -95.7519 288° West 340 391 12,900  Level Houston Center
07:17AM 30.0169 -95.8647 287° West 365 420 15,200 2,400 Climbing Houston Center
07:18AM 30.0478 -95.9783 287° West 372 428 17,800 2,400 Climbing Houston Center
07:19AM 30.0756 -96.0950 285° West 374 430 20,100 1,980 Climbing Houston Center
07:20AM 30.0942 -96.2164 280° West 386 444 21,800 1,980 Climbing Houston Center
07:21AM 30.1125 -96.3383 280° West 388 447 24,200 1,920 Climbing Houston Center
07:22AM 30.1317 -96.4678 280° West 388 447 25,800 1,500 Climbing Houston Center
07:23AM 30.1522 -96.5919 281° West 390 449 27,300 1,440 Climbing Houston Center
07:24AM 30.1714 -96.7194 280° West 395 455 28,800 1,380 Climbing Houston Center
07:25AM 30.1903 -96.8486 280° West 399 459 30,200 1,500 Climbing Houston Center
07:26AM 30.2089 -96.9761 280° West 400 460 31,900 840 Climbing Houston Center
07:27AM 30.2272 -97.1017 280° West 394 453 32,000  Climbing Houston Center
07:28AM 30.2447 -97.2264 279° West 389 448 32,000  Level Houston Center
07:29AM 30.2642 -97.3514 280° West 390 449 32,000  Level Houston Center
07:30AM 30.2817 -97.4756 279° West 386 444 32,000  Level Houston Center
07:31AM 30.2994 -97.6017 279° West 390 449 32,000  Level Houston Center
07:32AM 30.3178 -97.7256 280° West 387 445 32,000  Level Houston Center
07:33AM 30.3358 -97.8492 280° West 386 444 32,000  Level Houston Center
07:34AM 30.3542 -97.9719 280° West 383 441 32,000  Level Houston Center
07:35AM 30.3706 -98.0944 279° West 383 441 32,000  Level Houston Center
07:36AM 30.3872 -98.2172 279° West 382 440 32,000  Level Houston Center
07:37AM 30.4033 -98.3400 279° West 380 437 32,000  Level Houston Center
07:38AM 30.4200 -98.4611 279° West 378 435 32,000  Level Houston Center
07:39AM 30.4364 -98.5839 279° West 381 438 32,000  Level Houston Center
07:40AM 30.4531 -98.7047 279° West 378 435 32,000  Level Houston Center
07:41AM 30.4806 -98.8253 285° West 384 442 32,000  Level Houston Center
07:42AM 30.5742 -98.9058 323° Northwest 416 479 32,000  Level Houston Center
07:43AM 30.6844 -98.9664 335° Northwest 431 496 32,000  Level Houston Center
07:44AM 30.7942 -99.0289 334° Northwest 433 498 32,000  Level Houston Center
07:45AM 30.9017 -99.0917 333° Northwest 429 494 32,000  Level Houston Center
07:46AM 31.0125 -99.1547 334° Northwest 433 498 32,000  Level Houston Center
07:47AM 31.1125 -99.2117 334° Northwest 436 502 32,000  Level Houston Center
07:48AM 31.2211 -99.2736 334° Northwest 435 501 32,000  Level Houston Center
07:49AM 31.3419 -99.3422 334° Northwest 433 498 32,000  Level Houston Center
07:50AM 31.3983 -99.3725 335° Northwest 424 488 32,000  Level Fort Worth Center
07:51AM 31.5039 -99.4381 332° Northwest 424 488 32,000  Level Fort Worth Center
07:52AM 31.6011 -99.4914 335° Northwest 424 488 32,000  Level Fort Worth Center
07:53AM 31.7106 -99.5550 334° Northwest 424 488 32,000  Level Fort Worth Center
07:54AM 31.8203 -99.6161 335° Northwest 424 488 32,000  Level Fort Worth Center
07:55AM 31.9256 -99.6800 333° Northwest 424 488 32,000  Level Fort Worth Center
07:56AM 32.0350 -99.7464 333° Northwest 429 494 32,000  Level Fort Worth Center
07:57AM 32.1425 -99.8081 334° Northwest 429 494 32,000  Level Fort Worth Center
07:58AM 32.2517 -99.8747 333° Northwest 429 494 32,000  Level Fort Worth Center
07:59AM 32.3611 -99.9392 334° Northwest 429 494 32,000  Level Fort Worth Center
08:00AM 32.4706 -100.0039 333° Northwest 429 494 32,000  Level Fort Worth Center
08:01AM 32.5817 -100.0711 333° Northwest 429 494 32,000  Level Fort Worth Center
08:02AM 32.6911 -100.1361 333° Northwest 429 494 32,000  Level Fort Worth Center
08:03AM 32.8022 -100.2014 334° Northwest 434 499 32,000  Level Fort Worth Center
08:04AM 32.9217 -100.2719 334° Northwest 434 499 32,000  Level Fort Worth Center
08:05AM 33.0308 -100.3372 333° Northwest 434 499 32,000  Level Fort Worth Center
08:06AM 33.1381 -100.4003 334° Northwest 434 499 32,000  Level Fort Worth Center
08:07AM 33.2469 -100.4661 333° Northwest 434 499 32,000  Level Fort Worth Center
08:08AM 33.3581 -100.5347 333° Northwest 439 505 32,000  Level Fort Worth Center
08:09AM 33.4669 -100.5983 334° Northwest 439 505 32,000  Level Fort Worth Center
08:10AM 33.5758 -100.6644 333° Northwest 439 505 32,000  Level Fort Worth Center
08:11AM 33.6869 -100.7311 333° Northwest 445 512 32,000  Level Fort Worth Center
08:12AM 33.7936 -100.7975 333° Northwest 443 510 32,000  Level Fort Worth Center
08:13AM 33.9044 -100.8644 333° Northwest 443 510 32,000  Level Fort Worth Center
08:14AM 34.0153 -100.9339 333° Northwest 443 510 32,000  Level Fort Worth Center
08:16AM 34.2083 -101.0547 333° Northwest 441 507 32,000  Level Albuquerque Center
08:17AM 34.3200 -101.1219 334° Northwest 447 514 32,000  Level Albuquerque Center
08:18AM 34.4306 -101.1908 333° Northwest 446 513 32,000  Level Albuquerque Center
08:19AM 34.5419 -101.2619 332° Northwest 451 519 32,000  Level Albuquerque Center
08:20AM 34.6536 -101.3322 333° Northwest 452 520 32,000  Level Albuquerque Center
08:21AM 34.7642 -101.4011 333° Northwest 448 516 32,000  Level Albuquerque Center
08:22AM 34.8761 -101.4722 332° Northwest 453 521 32,000  Level Albuquerque Center
08:23AM 35.0006 -101.5511 333° Northwest 453 521 32,000  Level Albuquerque Center
08:24AM 35.1131 -101.6222 333° Northwest 453 521 32,000  Level Albuquerque Center
08:25AM 35.2303 -101.6950 333° Northwest 451 519 32,000  Level Albuquerque Center
08:26AM 35.3531 -101.7533 339° North 464 534 32,000  Level Albuquerque Center
08:27AM 35.4756 -101.8100 339° North 468 539 32,000  Level Albuquerque Center
08:28AM 35.5847 -101.8625 339° North 468 539 32,000  Level Albuquerque Center
08:29AM 35.7081 -101.9194 339° North 471 542 32,000  Level Albuquerque Center
08:30AM 35.8317 -101.9778 339° North 475 547 32,000  Level Albuquerque Center
08:31AM 35.9567 -102.0347 340° North 478 550 32,000  Level Albuquerque Center
08:32AM 36.0803 -102.0922 339° North 476 548 32,000  Level Albuquerque Center
08:33AM 36.2025 -102.1500 339° North 471 542 32,000  Level Albuquerque Center
08:34AM 36.3219 -102.2075 339° North 464 534 32,000  Level Albuquerque Center
08:35AM 36.4431 -102.2633 340° North 463 533 32,000  Level Albuquerque Center
08:36AM 36.5872 -102.3325 339° North 463 533 32,000  Level Albuquerque Center
08:37AM 36.7081 -102.3900 339° North 465 535 32,000  Level Albuquerque Center
08:38AM 36.8300 -102.4489 339° North 468 539 32,000  Level Albuquerque Center
08:39AM 36.9522 -102.5075 339° North 475 547 32,000  Level Albuquerque Center
08:40AM 37.0642 -102.5617 339° North 478 550 32,000  Level Albuquerque Center
08:41AM 37.2033 -102.6289 339° North 479 551 32,000  Level Albuquerque Center
08:42AM 37.3225 -102.6867 339° North 480 552 32,000  Level Albuquerque Center
08:43AM 37.4228 -102.7356 339° North 487 560 32,000  Level Denver Center
08:44AM 37.5600 -102.8111 336° Northwest 485 558 32,000  Level Denver Center
08:45AM 37.6694 -102.8897 330° Northwest 476 548 32,000  Level Denver Center
08:46AM 37.7772 -102.9711 329° Northwest 474 545 32,000  Level Denver Center
08:47AM 37.9017 -103.0661 329° Northwest 470 541 32,000  Level Denver Center
08:48AM 38.0064 -103.1467 329° Northwest 464 534 32,000  Level Denver Center
08:49AM 38.1131 -103.2278 329° Northwest 467 537 32,000  Level Denver Center
08:50AM 38.2372 -103.3236 329° Northwest 468 539 32,000  Level Denver Center
08:51AM 38.3556 -103.4139 329° Northwest 470 541 32,000  Level Denver Center
08:52AM 38.4683 -103.5006 329° Northwest 467 537 32,000 -180 Level Denver Center
08:53AM 38.5742 -103.5850 328° Northwest 470 541 31,700 -1,560 Descending Denver Center
08:54AM 38.6806 -103.6667 329° Northwest 467 537 28,900 -2,820 Descending Denver Center
08:55AM 38.8011 -103.7631 328° Northwest 456 525 26,100 -2,460 Descending Denver Center
08:56AM 38.8933 -103.8339 329° Northwest 437 503 24,000 -2,220 Descending Denver Center
08:57AM 38.9922 -103.9111 329° Northwest 416 479 21,600 -2,340 Descending Denver Center
08:58AM 39.0856 -103.9858 328° Northwest 397 457 19,300 -1,860 Descending Denver Center
08:59AM 39.1744 -104.0561 329° Northwest 376 433 17,900 -1,140 Descending Denver Center
09:00AM 39.2564 -104.1278 326° Northwest 339 390 17,000 -1,020 Descending Denver Center
09:01AM 39.2872 -104.2433 289° West 320 368 15,900 -1,140 Descending Denver Center
09:02AM 39.3094 -104.3428 286° West 295 339 14,700 -1,260 Descending Denver Center
09:03AM 39.3544 -104.4189 307° West 270 311 13,400 -1,380 Descending Denver Center
09:04AM 39.4097 -104.4789 320° Northwest 261 300 12,000 -1,500 Descending Denver Center
09:05AM 39.4650 -104.5392 320° Northwest 261 300 10,400 -1,380 Descending Denver Center
09:06AM 39.5108 -104.5881 321° Northwest 253 291 9,200 -720 Descending Denver Center
09:07AM 39.5858 -104.6450 330° Northwest 253 291 9,000 -120 Descending Denver Center
09:08AM 39.6528 -104.6628 348° North 243 280 9,000  Level Denver Center